• Join FlightAware (Why Join?)
  • Login
  • US Flag 
04:06AM EDT


 

Airport Tracker/Info


-or-


 

Live Flight TrackerFlight Track Log ✈ UPS1081 ✈ 07-May-2013 ✈ KEWR - KSDF

Flight Track Log - Related Links

Times and Time Zones

All times are in EDT time to prevent confusion due to time zone crossing. See the UPS1081 flight status page for this flight to view local times or setup timezone preferences in your user account.

Time Position Orientation Groundspeed Altitude Reporting Facility
EDT Latitude Longitude Course Direction KTS MPH feet Rate Location/Type
11:10PM 40.7110 -74.1570 157° South 164 189 1,400  Level FlightAware
11:10PM 40.7200 -74.1470 40° Northeast 177 204 2,000 1,800 Climbing FlightAware
11:10PM 40.7310 -74.1400 26° Northeast 211 243 2,300 1,500 Climbing FlightAware
11:10PM 40.7387 -74.1390 North 225 259 2,500 1,980 Climbing FlightAware ADS-B
11:10PM 40.7427 -74.1398 351° North 234 269 2,600 1,800 Climbing FlightAware ADS-B
11:10PM 40.7491 -74.1426 342° North 244 281 2,800 1,500 Climbing FlightAware ADS-B
11:10PM 40.7549 -74.1474 328° Northwest 257 296 2,900 1,200 Climbing FlightAware ADS-B
11:11PM 40.7585 -74.1516 319° Northwest 265 305 3,000 1,980 Climbing FlightAware ADS-B
11:11PM 40.7647 -74.1635 305° West 276 318 3,300 2,700 Climbing FlightAware ADS-B
11:11PM 40.7664 -74.1681 296° West 278 320 3,500 3,300 Climbing FlightAware ADS-B
11:11PM 40.7683 -74.1761 287° West 279 321 3,800 3,300 Climbing FlightAware ADS-B
11:11PM 40.7694 -74.1982 274° West 280 322 4,500 3,540 Climbing FlightAware ADS-B
11:11PM 40.7694 -74.2225 270° West 286 329 5,400 3,720 Climbing FlightAware ADS-B
11:11PM 40.7694 -74.2260 270° West 286 329 5,500 3,360 Climbing FlightAware ADS-B
11:12PM 40.7695 -74.2507 270° West 290 334 6,300 3,360 Climbing FlightAware ADS-B
11:12PM 40.7695 -74.2523 270° West 290 334 6,400 3,960 Climbing FlightAware ADS-B
11:12PM 40.7699 -74.2791 271° West 294 338 7,300 3,720 Climbing FlightAware ADS-B
11:12PM 40.7699 -74.2827 270° West 294 338 7,400 3,420 Climbing FlightAware ADS-B
11:12PM 40.7702 -74.3115 271° West 296 341 8,400 3,540 Climbing FlightAware ADS-B
11:12PM 40.7704 -74.3387 271° West 298 343 9,300 2,880 Climbing FlightAware ADS-B
11:13PM 40.7708 -74.3965 271° West 322 371 10,600 2,220 Climbing FlightAware ADS-B
11:13PM 40.7698 -74.4269 268° West 338 389 11,000 1,500 Climbing FlightAware ADS-B
11:13PM 40.7683 -74.4350 256° West 298 343 11,100 600 Climbing FlightAware ADS-B
11:13PM 40.7658 -74.4450 252° West 347 399 11,100 1,200 Level FlightAware ADS-B
11:14PM 40.7454 -74.5064 246° West 382 440 11,800 1,620 Climbing FlightAware ADS-B
11:14PM 40.7383 -74.5276 246° West 380 437 12,200 2,760 Climbing FlightAware ADS-B
11:14PM 40.7229 -74.5728 246° West 392 451 13,200 2,820 Climbing FlightAware ADS-B
11:15PM 40.7031 -74.6301 246° West 389 448 14,400 2,760 Climbing FlightAware ADS-B
11:15PM 40.7002 -74.6391 247° West 401 461 14,600 2,700 Climbing FlightAware ADS-B
11:15PM 40.6769 -74.7062 245° Southwest 404 465 16,000 2,940 Climbing FlightAware ADS-B
11:16PM 40.6539 -74.7731 246° West 401 461 17,600 2,760 Climbing FlightAware ADS-B
11:16PM 40.6342 -74.8315 246° West 409 471 18,600 2,220 Climbing FlightAware ADS-B
11:17PM 40.6144 -74.9049 250° West 418 481 19,700 2,040 Climbing FlightAware ADS-B
11:17PM 40.5948 -74.9783 251° West 430 495 20,700 1,800 Climbing FlightAware ADS-B
11:18PM 40.5740 -75.0558 251° West 441 507 21,600 1,740 Climbing FlightAware ADS-B
11:18PM 40.5534 -75.1354 251° West 450 518 22,500 1,800 Climbing FlightAware ADS-B
11:19PM 40.5325 -75.2136 251° West 460 529 23,400 1,740 Climbing FlightAware ADS-B
11:19PM 40.5108 -75.2930 250° West 467 537 24,300 1,620 Climbing FlightAware ADS-B
11:20PM 40.4883 -75.3769 251° West 475 547 25,100 1,440 Climbing FlightAware ADS-B
11:20PM 40.4659 -75.4589 250° West 483 556 25,800 1,500 Climbing FlightAware ADS-B
11:21PM 40.4431 -75.5448 251° West 488 562 26,600 1,380 Climbing FlightAware ADS-B
11:21PM 40.4203 -75.6291 250° West 493 567 27,200 1,440 Climbing FlightAware ADS-B
11:22PM 40.3965 -75.7164 250° West 494 568 28,100 1,740 Climbing FlightAware ADS-B
11:22PM 40.3734 -75.8009 250° West 493 567 29,000 1,740 Climbing FlightAware ADS-B
11:23PM 40.3491 -75.8880 250° West 493 567 29,900 1,500 Climbing FlightAware ADS-B
11:23PM 40.3258 -75.9724 250° West 494 568 30,600 1,500 Climbing FlightAware ADS-B
11:24PM 40.3023 -76.0568 250° West 493 567 31,400 1,380 Climbing FlightAware ADS-B
11:24PM 40.2788 -76.1436 250° West 495 570 32,000 540 Climbing FlightAware ADS-B
11:25PM 40.2543 -76.2310 250° West 497 572 32,000  Level FlightAware ADS-B
11:25PM 40.2306 -76.3156 250° West 496 571 32,000  Level FlightAware ADS-B
11:26PM 40.2058 -76.4030 250° West 499 574 32,000  Level FlightAware ADS-B
11:26PM 40.1817 -76.4878 250° West 500 575 32,000  Level FlightAware ADS-B
11:27PM 40.1574 -76.5755 250° West 501 577 32,000  Level FlightAware ADS-B
11:27PM 40.1334 -76.6613 250° West 504 580 32,000  Level FlightAware ADS-B
11:28PM 40.1094 -76.7497 250° West 502 578 32,000  Level FlightAware ADS-B
11:28PM 40.0850 -76.8351 250° West 504 580 32,000  Level FlightAware ADS-B
11:29PM 40.0599 -76.9202 249° West 504 580 32,000 540 Level FlightAware ADS-B
11:29PM 40.0349 -77.0057 249° West 505 581 32,600 1,260 Climbing FlightAware ADS-B
11:30PM 40.0096 -77.0938 249° West 503 579 33,300 1,320 Climbing FlightAware ADS-B
11:30PM 39.9829 -77.1874 250° West 503 579 34,000 600 Climbing FlightAware ADS-B
11:31PM 39.9569 -77.2785 250° West 506 582 34,000  Level FlightAware ADS-B
11:32PM 39.9317 -77.3645 249° West 508 585 34,000  Level FlightAware ADS-B
11:32PM 39.9060 -77.4527 249° West 505 581 34,000  Level FlightAware ADS-B
11:33PM 39.8799 -77.5403 249° West 503 579 34,000  Level FlightAware ADS-B
11:33PM 39.8532 -77.6305 249° West 502 578 34,000  Level FlightAware ADS-B
11:34PM 39.8274 -77.7182 249° West 507 583 34,000  Level FlightAware ADS-B
11:34PM 39.8020 -77.8039 249° West 510 587 34,000  Level FlightAware ADS-B
11:35PM 39.7762 -77.8927 249° West 513 590 34,000  Level FlightAware ADS-B
11:36PM 39.7280 -78.0500 248° West 511 588 34,000  Level FlightAware
11:36PM 39.7093 -78.1132 249° West 514 592 34,000  Level FlightAware ADS-B
11:36PM 39.6998 -78.1375 243° Southwest 506 582 34,000  Level FlightAware ADS-B
11:37PM 39.6630 -78.2144 238° Southwest 501 577 34,000  Level FlightAware ADS-B
11:37PM 39.6243 -78.2928 237° Southwest 503 579 34,000  Level FlightAware ADS-B
11:38PM 39.5870 -78.3580 233° Southwest 500 575 34,000  Level FlightAware
11:38PM 39.5510 -78.3960 219° Southwest 487 560 34,000  Level FlightAware
11:39PM 39.4700 -78.4750 217° Southwest 480 552 34,000  Level FlightAware
11:39PM 39.4030 -78.5400 217° Southwest 474 545 34,000  Level FlightAware
11:40PM 39.3400 -78.6020 217° Southwest 476 548 34,000  Level FlightAware
11:41PM 39.2820 -78.7050 234° Southwest 491 565 34,000  Level FlightAware
11:41PM 39.2350 -78.8210 242° Southwest 485 558 34,000  Level FlightAware
11:42PM 39.1930 -78.9230 242° Southwest 483 556 34,000  Level FlightAware
11:43PM 39.1450 -79.0370 242° Southwest 488 562 34,000  Level FlightAware
11:43PM 39.1020 -79.1400 242° Southwest 487 560 34,000  Level FlightAware
11:44PM 39.0600 -79.2410 242° Southwest 480 552 34,000  Level FlightAware
11:45PM 39.0110 -79.3560 241° Southwest 477 549 34,000  Level FlightAware
11:46PM 38.9700 -79.4540 242° Southwest 482 555 34,000  Level FlightAware
11:46PM 38.9220 -79.5680 242° Southwest 487 560 34,000  Level FlightAware
11:47PM 38.8770 -79.6720 241° Southwest 488 562 34,000  Level FlightAware
11:48PM 38.8340 -79.7730 241° Southwest 488 562 34,000  Level FlightAware
11:48PM 38.7880 -79.8830 242° Southwest 489 563 34,000  Level FlightAware
11:49PM 38.7600 -79.9930 252° West 492 566 34,000  Level FlightAware
11:50PM 38.7290 -80.1160 252° West 493 567 34,000  Level FlightAware
11:51PM 38.6930 -80.2600 252° West 495 570 34,000  Level FlightAware
11:51PM 38.6690 -80.3540 252° West 495 570 34,000  Level FlightAware
11:52PM 38.6450 -80.4490 252° West 495 570 34,000  Level FlightAware
11:53PM 38.6210 -80.5440 252° West 495 570 34,000  Level FlightAware
11:53PM 38.5970 -80.6390 252° West 495 570 34,000  Level FlightAware
11:54PM 38.5440 -80.8540 253° West 487 560 34,000  Level FlightAware
11:55PM 38.5160 -80.9660 252° West 483 556 34,000  Level FlightAware
11:56PM 38.4850 -81.0870 252° West 477 549 34,000  Level FlightAware
11:56PM 38.4570 -81.1920 251° West 480 552 34,000  Level FlightAware
11:57PM 38.4260 -81.3130 252° West 481 554 34,000  Level FlightAware
11:58PM 38.3970 -81.4230 251° West 479 551 34,000  Level FlightAware
11:58PM 38.3690 -81.5320 252° West 476 548 34,000  Level FlightAware
11:59PM 38.3390 -81.6470 252° West 477 549 34,000  Level FlightAware
12:00AM 38.3110 -81.7500 251° West 477 549 34,000  Level FlightAware
12:00AM 38.2820 -81.8620 252° West 477 549 34,000  Level FlightAware
12:01AM 38.2510 -81.9790 251° West 476 548 34,000  Level FlightAware
12:02AM 38.2220 -82.0850 251° West 476 548 34,000  Level FlightAware
12:03AM 38.1940 -82.1910 251° West 475 547 34,000  Level FlightAware
12:03AM 38.1610 -82.3120 251° West 473 544 34,000  Level FlightAware
12:04AM 38.1300 -82.4280 251° West 473 544 34,000  Level FlightAware
12:05AM 38.1010 -82.5350 251° West 471 542 34,000  Level FlightAware
12:05AM 38.0855 -82.5901 250° West 471 542 34,000  Level FlightAware ADS-B
12:06AM 38.0640 -82.6709 251° West 470 541 34,000  Level FlightAware ADS-B
12:06AM 38.0400 -82.7566 250° West 470 541 34,000  Level FlightAware ADS-B
12:07AM 38.0140 -82.8520 251° West 469 540 34,000  Level FlightAware
12:07AM 37.9849 -82.9588 251° West 468 539 34,000  Level FlightAware ADS-B
12:08AM 37.9466 -83.0964 251° West 469 540 34,000 -120 Level FlightAware ADS-B
12:09AM 37.9227 -83.1825 251° West 469 540 33,900 -960 Descending FlightAware ADS-B
12:14AM 37.6752 -84.0543 251° West 495 570 28,500 -1,020 Descending FlightAware ADS-B
12:15AM 37.6516 -84.1351 250° West 489 563 27,900 -1,920 Descending FlightAware ADS-B
12:15AM 37.6283 -84.2164 250° West 465 535 26,600 -2,880 Descending FlightAware ADS-B
12:16AM 37.6010 -84.3118 250° West 436 502 24,600 -1,800 Descending FlightAware ADS-B
12:17AM 37.5760 -84.3970 250° West 434 499 24,200 -300 Descending FlightAware
12:17AM 37.5530 -84.4780 250° West 434 499 24,200  Level FlightAware
12:18AM 37.5290 -84.5590 250° West 434 499 24,200  Level FlightAware
12:19AM 37.5060 -84.6400 250° West 434 499 24,200  Level FlightAware
12:19AM 37.4830 -84.7200 250° West 434 499 24,200  Level FlightAware
12:20AM 37.4590 -84.8010 250° West 434 499 24,200 -8,880 Level FlightAware
12:20AM 37.5190 -84.9040 306° West 371 427 14,600 -7,680 Descending FlightAware
12:21AM 37.5100 -85.0170 264° West 364 419 14,000 -420 Descending FlightAware
12:22AM 37.5050 -85.0880 265° West 364 419 14,000 -2,820 Level FlightAware
12:22AM 37.6310 -85.0440 15° North 317 365 11,000 -2,880 Descending FlightAware
12:23AM 37.6860 -85.0510 354° North 316 364 10,900 -120 Descending FlightAware
12:24AM 37.7470 -85.0590 354° North 316 364 10,900  Level FlightAware
12:25AM 37.7970 -85.0650 355° North 316 364 10,900 -1,860 Level FlightAware
12:26AM 37.7940 -85.2410 269° West 287 330 7,500 -2,580 Descending FlightAware
12:26AM 37.7850 -85.2800 254° West 285 328 6,900 -1,500 Descending FlightAware
12:26AM 37.7780 -85.3050 250° West 283 326 6,500 -1,380 Descending FlightAware
12:27AM 37.7680 -85.3510 255° West 278 320 5,900 -960 Descending FlightAware
12:27AM 37.7620 -85.3720 250° West 267 307 5,800 -180 Descending FlightAware
12:28AM 37.7540 -85.4080 254° West 267 307 5,800 -540 Level FlightAware
12:33AM 37.8980 -85.6330 309° West 210 242 3,000 -540 Descending FlightAware
12:33AM 37.9230 -85.6400 348° North 210 242 3,000  Level FlightAware
12:34AM 37.9440 -85.6470 345° North 210 242 3,000  Level FlightAware
12:34AM 37.9780 -85.6610 342° North 200 230 3,000  Level FlightAware
12:35AM 38.0000 -85.6680 346° North 183 211 3,000  Level FlightAware
12:35AM 38.0120 -85.6720 345° North 178 205 3,000  Level FlightAware
12:35AM 38.0350 -85.6790 347° North 177 204 3,000 -480 Level FlightAware
12:36AM 38.0550 -85.6860 345° North 175 201 2,600 -780 Descending FlightAware
12:36AM 38.0660 -85.6900 344° North 163 188 2,500 -420 Descending FlightAware